Time;durP1;ratioP1;P1;durP2;ratioP2;P2;SDS_P1;SDS_P2;PMS_P1;PMS_P2;Temp;Humidity;BMP_temperature;BMP_pressure;BME280_temperature;BME280_humidity;BME280_pressure;Samples;Min_cycle;Max_cycle;Signal;HPM_P1;HPM_P2
2023/12/27 00:00:15;;;;;;;0.30;0.20;;;;;;;7.18;100.00;100605.22;108510;1253;73570;-57
2023/12/27 00:02:42;;;;;;;0.40;0.20;;;;;;;7.20;100.00;100614.29;108910;1254;65594;-59
2023/12/27 00:05:09;;;;;;;0.80;0.10;;;;;;;7.22;100.00;100618.56;108985;1253;73113;-59
2023/12/27 00:07:37;;;;;;;0.20;0.20;;;;;;;7.24;100.00;100622.40;104782;1256;60442;-54
2023/12/27 00:10:05;;;;;;;0.30;0.20;;;;;;;7.27;100.00;100622.70;104722;1253;60694;-55
2023/12/27 00:12:32;;;;;;;0.70;0.10;;;;;;;7.30;100.00;100622.65;104646;1255;73105;-56
2023/12/27 00:15:00;;;;;;;0.10;0.10;;;;;;;7.32;100.00;100619.73;104675;1254;67682;-58
2023/12/27 00:17:28;;;;;;;0.10;0.10;;;;;;;7.33;100.00;100622.58;105016;1253;71572;-56
2023/12/27 00:19:55;;;;;;;0.20;0.10;;;;;;;7.33;100.00;100625.61;104832;1257;60297;-58
2023/12/27 00:22:23;;;;;;;0.30;0.10;;;;;;;7.31;100.00;100624.59;104723;1254;59878;-52
2023/12/27 00:24:50;;;;;;;0.20;0.10;;;;;;;7.30;100.00;100620.70;105115;1254;71886;-56
2023/12/27 00:27:17;;;;;;;1.60;0.20;;;;;;;7.30;100.00;100618.73;104825;1257;66789;-58
2023/12/27 00:29:45;;;;;;;0.20;0.20;;;;;;;7.31;100.00;100611.56;104785;1259;70894;-57
2023/12/27 00:32:12;;;;;;;0.40;0.20;;;;;;;7.33;100.00;100615.08;104873;1253;59784;-58
2023/12/27 00:34:39;;;;;;;0.30;0.20;;;;;;;7.35;100.00;100623.97;104965;1259;61013;-58
2023/12/27 00:37:09;;;;;;;0.30;0.20;;;;;;;7.37;100.00;100617.34;104811;1259;73543;-58
2023/12/27 00:39:36;;;;;;;0.10;0.10;;;;;;;7.37;100.00;100627.31;104739;1259;67230;-54
2023/12/27 00:42:04;;;;;;;1.30;0.20;;;;;;;7.37;100.00;100632.69;104736;1256;71491;-56
2023/12/27 00:44:32;;;;;;;0.50;0.30;;;;;;;7.35;100.00;100630.21;105336;1254;59737;-58
2023/12/27 00:47:00;;;;;;;1.30;0.30;;;;;;;7.32;100.00;100633.84;104858;1254;59723;-58
2023/12/27 00:49:27;;;;;;;0.50;0.20;;;;;;;7.29;100.00;100620.53;104690;1255;73130;-55
2023/12/27 00:51:55;;;;;;;0.40;0.20;;;;;;;7.25;100.00;100614.17;105107;1259;65818;-54
2023/12/27 00:54:22;;;;;;;0.60;0.30;;;;;;;7.23;100.00;100608.33;104638;1259;71166;-52
2023/12/27 00:56:50;;;;;;;1.00;0.20;;;;;;;7.22;100.00;100606.56;104716;1260;60974;-58
2023/12/27 00:59:17;;;;;;;0.60;0.20;;;;;;;7.22;100.00;100609.63;104956;1254;60661;-56
2023/12/27 01:01:44;;;;;;;0.50;0.30;;;;;;;7.21;100.00;100608.04;104703;1253;72665;-54
2023/12/27 01:04:11;;;;;;;3.20;0.20;;;;;;;7.19;100.00;100606.80;104714;1255;65861;-55
2023/12/27 01:06:39;;;;;;;0.30;0.20;;;;;;;7.18;100.00;100613.79;105612;1254;72377;-55
2023/12/27 01:09:07;;;;;;;3.70;0.30;;;;;;;7.18;100.00;100616.83;104707;1254;60517;-55
2023/12/27 01:11:35;;;;;;;0.60;0.30;;;;;;;7.17;100.00;100618.98;104702;1254;62123;-53
2023/12/27 01:14:03;;;;;;;0.50;0.30;;;;;;;7.17;100.00;100615.58;104863;1254;75496;-57
2023/12/27 01:16:30;;;;;;;2.70;0.40;;;;;;;7.17;100.00;100607.55;104764;1254;66902;-59
2023/12/27 01:18:57;;;;;;;1.70;0.30;;;;;;;7.17;100.00;100602.55;106365;1256;73637;-56
2023/12/27 01:21:25;;;;;;;1.80;0.70;;;;;;;7.15;100.00;100601.70;105291;1259;60524;-55
2023/12/27 01:23:52;;;;;;;0.50;0.30;;;;;;;7.13;100.00;100596.59;104947;1255;60572;-55
2023/12/27 01:26:20;;;;;;;0.50;0.40;;;;;;;7.10;100.00;100590.77;105385;1253;74264;-59
2023/12/27 01:28:47;;;;;;;0.50;0.30;;;;;;;7.05;100.00;100586.05;105462;1254;66945;-56
2023/12/27 01:31:14;;;;;;;1.30;0.40;;;;;;;7.00;100.00;100582.20;104896;1256;72703;-54
2023/12/27 01:33:42;;;;;;;0.90;0.30;;;;;;;6.95;100.00;100584.83;105032;1254;60695;-55
2023/12/27 01:36:09;;;;;;;0.50;0.30;;;;;;;6.92;100.00;100569.55;104726;1254;60508;-54
2023/12/27 01:38:37;;;;;;;0.60;0.30;;;;;;;6.90;100.00;100560.12;104609;1255;72658;-57
2023/12/27 01:41:04;;;;;;;0.80;0.20;;;;;;;6.89;100.00;100551.77;104714;1254;67043;-57
2023/12/27 01:43:31;;;;;;;0.30;0.20;;;;;;;6.88;100.00;100546.07;104877;1252;72436;-55
2023/12/27 01:46:00;;;;;;;0.70;0.20;;;;;;;6.88;100.00;100549.66;104762;1254;60436;-60
2023/12/27 01:48:27;;;;;;;0.50;0.30;;;;;;;6.85;100.00;100539.54;104795;1254;61237;-57
2023/12/27 01:50:55;;;;;;;0.80;0.20;;;;;;;6.82;100.00;100536.91;104712;1254;72688;-56
2023/12/27 01:53:22;;;;;;;0.40;0.20;;;;;;;6.78;100.00;100531.48;104750;1256;65514;-59
2023/12/27 01:55:49;;;;;;;0.50;0.20;;;;;;;6.75;100.00;100529.04;104785;1254;73782;-59
2023/12/27 01:58:17;;;;;;;1.20;0.20;;;;;;;6.73;100.00;100526.93;104775;1253;61754;-56
2023/12/27 02:00:45;;;;;;;0.40;0.30;;;;;;;6.71;100.00;100529.13;104819;1255;60591;-58
2023/12/27 02:03:13;;;;;;;2.60;0.40;;;;;;;6.69;100.00;100528.62;105344;1254;74649;-55
2023/12/27 02:05:40;;;;;;;0.80;0.40;;;;;;;6.69;100.00;100523.46;106039;1254;66897;-60
2023/12/27 02:08:09;;;;;;;0.90;0.40;;;;;;;6.68;100.00;100528.11;105452;1254;71921;-54
2023/12/27 02:10:36;;;;;;;0.50;0.40;;;;;;;6.67;100.00;100529.20;104847;1256;60482;-55
2023/12/27 02:13:04;;;;;;;0.70;0.30;;;;;;;6.66;100.00;100523.50;104725;1254;61034;-58
2023/12/27 02:15:32;;;;;;;0.50;0.30;;;;;;;6.65;100.00;100539.75;104775;1254;72040;-55
2023/12/27 02:18:00;;;;;;;0.40;0.20;;;;;;;6.66;100.00;100557.58;104676;1260;65366;-58
2023/12/27 02:20:28;;;;;;;2.00;0.20;;;;;;;6.67;100.00;100576.98;105176;1257;71906;-54
2023/12/27 02:22:57;;;;;;;0.30;0.20;;;;;;;6.71;100.00;100593.16;104655;1256;60508;-56
2023/12/27 02:25:24;;;;;;;0.50;0.30;;;;;;;6.72;100.00;100610.43;104695;1253;60846;-57
2023/12/27 02:27:51;;;;;;;0.40;0.30;;;;;;;6.73;100.00;100618.26;104799;1254;73912;-56
2023/12/27 02:30:19;;;;;;;0.40;0.20;;;;;;;6.73;100.00;100636.45;104979;1254;69260;-56
2023/12/27 02:32:50;;;;;;;0.40;0.20;;;;;;;6.73;100.00;100653.39;104728;1254;73183;-54
2023/12/27 02:35:18;;;;;;;0.40;0.30;;;;;;;6.74;100.00;100667.11;104639;1256;60470;-54
2023/12/27 02:37:46;;;;;;;0.80;0.20;;;;;;;6.74;100.00;100664.98;104957;1254;60443;-56
2023/12/27 02:40:14;;;;;;;0.50;0.30;;;;;;;6.75;100.00;100664.41;106895;1253;71655;-57
2023/12/27 02:42:41;;;;;;;1.50;0.50;;;;;;;6.76;100.00;100657.63;106332;1254;68744;-55
2023/12/27 02:45:08;;;;;;;0.60;0.30;;;;;;;6.78;100.00;100650.11;104877;1257;73134;-56
2023/12/27 02:47:36;;;;;;;0.70;0.30;;;;;;;6.78;100.00;100647.24;104613;1254;60648;-55
2023/12/27 02:50:04;;;;;;;0.50;0.30;;;;;;;6.79;100.00;100634.38;105074;1254;60614;-54
2023/12/27 02:52:31;;;;;;;0.60;0.30;;;;;;;6.79;100.00;100626.36;104608;1253;72930;-56
2023/12/27 02:54:58;;;;;;;1.30;0.30;;;;;;;6.76;100.00;100618.91;104676;1254;67156;-52
2023/12/27 02:57:27;;;;;;;0.30;0.20;;;;;;;6.74;100.00;100608.78;104734;1259;73694;-53
2023/12/27 02:59:55;;;;;;;0.90;0.20;;;;;;;6.72;100.00;100603.64;108877;1259;60492;-58
2023/12/27 03:02:23;;;;;;;0.50;0.20;;;;;;;6.71;100.00;100597.27;106506;1254;60514;-58
2023/12/27 03:04:50;;;;;;;0.30;0.20;;;;;;;6.72;100.00;100585.11;105194;1254;72927;-57
2023/12/27 03:07:18;;;;;;;1.90;0.20;;;;;;;6.73;100.00;100578.85;105330;1260;66831;-58
2023/12/27 03:09:45;;;;;;;0.40;0.20;;;;;;;6.73;100.00;100569.39;105007;1257;72312;-57
2023/12/27 03:12:13;;;;;;;0.50;0.30;;;;;;;6.71;100.00;100567.83;105102;1254;60641;-57
2023/12/27 03:14:40;;;;;;;0.50;0.30;;;;;;;6.68;100.00;100561.28;105003;1258;60444;-58
2023/12/27 03:17:07;;;;;;;0.80;0.20;;;;;;;6.64;100.00;100552.45;104932;1253;73857;-56
2023/12/27 03:19:35;;;;;;;0.40;0.20;;;;;;;6.62;100.00;100539.13;105100;1254;67700;-55
2023/12/27 03:22:02;;;;;;;0.30;0.20;;;;;;;6.60;100.00;100534.51;106655;1259;73589;-57
2023/12/27 03:24:30;;;;;;;0.40;0.20;;;;;;;6.60;100.00;100528.09;105252;1256;60549;-58
2023/12/27 03:26:57;;;;;;;0.50;0.20;;;;;;;6.61;100.00;100526.83;104923;1254;60552;-57
2023/12/27 03:29:24;;;;;;;1.20;0.20;;;;;;;6.64;100.00;100526.05;104995;1258;74401;-58
2023/12/27 03:31:53;;;;;;;0.40;0.20;;;;;;;6.66;100.00;100528.85;104709;1260;65820;-57
2023/12/27 03:34:20;;;;;;;0.80;0.20;;;;;;;6.67;100.00;100529.55;104925;1259;72734;-57
2023/12/27 03:36:48;;;;;;;0.40;0.20;;;;;;;6.65;100.00;100524.77;107060;1258;59374;-60
2023/12/27 03:39:15;;;;;;;0.40;0.20;;;;;;;6.64;100.00;100519.45;104909;1254;62467;-57
2023/12/27 03:41:42;;;;;;;2.30;0.20;;;;;;;6.63;100.00;100518.06;104828;1259;73904;-59
2023/12/27 03:44:10;;;;;;;1.50;0.20;;;;;;;6.62;100.00;100517.55;104858;1254;67294;-59
2023/12/27 03:46:37;;;;;;;0.50;0.20;;;;;;;6.63;100.00;100503.95;104923;1259;71385;-59
2023/12/27 03:49:04;;;;;;;0.70;0.20;;;;;;;6.65;100.00;100496.79;105657;1254;60084;-58
2023/12/27 03:51:32;;;;;;;0.80;0.10;;;;;;;6.67;100.00;100494.59;104831;1254;61227;-58
2023/12/27 03:54:00;;;;;;;0.60;0.20;;;;;;;6.69;100.00;100494.38;104811;1254;73892;-55
2023/12/27 03:56:28;;;;;;;0.50;0.30;;;;;;;6.71;100.00;100496.84;104895;1257;67023;-57
2023/12/27 03:58:56;;;;;;;0.20;0.20;;;;;;;6.72;100.00;100497.89;104797;1254;72901;-59
2023/12/27 04:01:23;;;;;;;1.00;0.50;;;;;;;6.72;100.00;100501.25;104948;1257;60796;-58
2023/12/27 04:03:51;;;;;;;0.60;0.20;;;;;;;6.70;100.00;100500.23;104867;1253;60436;-59
2023/12/27 04:06:19;;;;;;;3.20;0.30;;;;;;;6.69;100.00;100500.09;106759;1254;74192;-58
2023/12/27 04:08:47;;;;;;;0.60;0.30;;;;;;;6.67;100.00;100497.27;104697;1259;69121;-58
2023/12/27 04:16:07;;;;;;;0.30;0.20;;;;;;;6.66;100.00;100586.99;105101;1254;62681;-57
2023/12/27 04:18:35;;;;;;;0.40;0.20;;;;;;;6.68;100.00;100511.54;104997;1254;60524;-58
2023/12/27 04:21:03;;;;;;;0.50;0.30;;;;;;;6.70;100.00;100501.32;104781;1254;72603;-54
2023/12/27 04:23:30;;;;;;;0.90;0.20;;;;;;;6.72;100.00;100500.39;104953;1253;65723;-58
2023/12/27 04:25:58;;;;;;;0.90;0.20;;;;;;;6.71;100.00;100498.28;104740;1254;72828;-59
2023/12/27 04:28:26;;;;;;;0.50;0.20;;;;;;;6.69;100.00;100502.95;104847;1256;60455;-59
2023/12/27 04:30:53;;;;;;;1.10;0.20;;;;;;;6.66;100.00;100505.49;105037;1254;60495;-59
2023/12/27 04:33:21;;;;;;;0.60;0.30;;;;;;;6.61;100.00;100502.58;106532;1256;72642;-56
2023/12/27 04:35:48;;;;;;;0.90;0.10;;;;;;;6.57;100.00;100502.83;104849;1254;67040;-58
2023/12/27 04:38:18;;;;;;;2.10;0.30;;;;;;;6.55;100.00;100500.20;104806;1257;73144;-57
2023/12/27 04:40:46;;;;;;;1.10;0.10;;;;;;;6.53;100.00;100501.31;104716;1257;60613;-59
2023/12/27 04:43:13;;;;;;;0.50;0.20;;;;;;;6.54;100.00;100498.80;104951;1253;60540;-56
2023/12/27 04:45:40;;;;;;;0.40;0.30;;;;;;;6.56;100.00;100491.95;104820;1256;73896;-57
2023/12/27 04:48:08;;;;;;;0.50;0.20;;;;;;;6.58;100.00;100487.13;104821;1254;66789;-57
2023/12/27 04:50:36;;;;;;;0.80;0.20;;;;;;;6.58;100.00;100480.34;104623;1254;72269;-59
2023/12/27 04:53:04;;;;;;;0.40;0.30;;;;;;;6.54;100.00;100474.18;105842;1253;60410;-58
2023/12/27 04:55:31;;;;;;;0.50;0.20;;;;;;;6.50;100.00;100471.23;104707;1254;60661;-57
2023/12/27 04:57:59;;;;;;;0.50;0.20;;;;;;;6.46;100.00;100475.42;104835;1254;74033;-55
2023/12/27 05:00:27;;;;;;;0.50;0.20;;;;;;;6.41;100.00;100468.02;104781;1258;67065;-59
2023/12/27 05:02:54;;;;;;;1.60;0.20;;;;;;;6.38;100.00;100469.17;104676;1259;73808;-58
2023/12/27 05:05:22;;;;;;;1.10;0.30;;;;;;;6.33;100.00;100463.55;104720;1257;60547;-58
2023/12/27 05:07:49;;;;;;;1.00;0.20;;;;;;;6.29;100.00;100453.66;104886;1254;61672;-59
2023/12/27 05:10:17;;;;;;;0.30;0.20;;;;;;;6.26;100.00;100443.56;104849;1260;73921;-60
2023/12/27 05:12:44;;;;;;;1.10;0.30;;;;;;;6.24;100.00;100436.81;105131;1257;65618;-59
2023/12/27 05:15:11;;;;;;;5.90;0.60;;;;;;;6.23;100.00;100433.61;105101;1257;71539;-59
2023/12/27 05:17:39;;;;;;;0.30;0.20;;;;;;;6.24;100.00;100433.27;105172;1259;60815;-58
2023/12/27 05:20:07;;;;;;;1.70;0.20;;;;;;;6.22;100.00;100435.40;105018;1261;60690;-58
2023/12/27 05:22:36;;;;;;;0.80;0.20;;;;;;;6.20;100.00;100424.42;105111;1259;73950;-60
2023/12/27 05:25:03;;;;;;;1.20;0.30;;;;;;;6.18;100.00;100422.15;105100;1254;67050;-58
2023/12/27 05:27:31;;;;;;;1.10;0.20;;;;;;;6.16;100.00;100430.74;105140;1256;72600;-57
2023/12/27 05:29:58;;;;;;;2.80;0.30;;;;;;;6.12;100.00;100440.80;105157;1254;60417;-59
2023/12/27 05:32:26;;;;;;;2.20;0.50;;;;;;;6.10;100.00;100437.45;105044;1253;60680;-59
2023/12/27 05:34:53;;;;;;;0.50;0.20;;;;;;;6.09;100.00;100439.26;104981;1259;72632;-59
2023/12/27 05:37:20;;;;;;;0.70;0.30;;;;;;;6.09;100.00;100437.65;104834;1255;65792;-58
2023/12/27 05:39:48;;;;;;;1.00;0.20;;;;;;;6.11;100.00;100443.86;104827;1254;72419;-59
2023/12/27 05:42:15;;;;;;;0.40;0.20;;;;;;;6.14;100.00;100436.66;104848;1256;60476;-58
2023/12/27 05:44:42;;;;;;;0.50;0.30;;;;;;;6.19;100.00;100434.61;104963;1256;60862;-58
2023/12/27 05:47:10;;;;;;;0.50;0.20;;;;;;;6.23;100.00;100440.39;104898;1253;72924;-59
2023/12/27 05:49:37;;;;;;;0.90;0.30;;;;;;;6.29;100.00;100443.68;105004;1253;66203;-60
2023/12/27 05:52:05;;;;;;;0.60;0.20;;;;;;;6.31;100.00;100447.17;104865;1259;73172;-58
2023/12/27 05:54:32;;;;;;;1.20;0.20;;;;;;;6.33;100.00;100448.21;104912;1254;60529;-58
2023/12/27 05:56:59;;;;;;;0.50;0.20;;;;;;;6.34;100.00;100447.31;104855;1256;60286;-58
2023/12/27 05:59:27;;;;;;;0.70;0.20;;;;;;;6.34;100.00;100443.21;104889;1259;72300;-56
2023/12/27 06:01:54;;;;;;;0.80;0.30;;;;;;;6.33;100.00;100444.11;104701;1256;66279;-57
2023/12/27 06:04:22;;;;;;;0.70;0.30;;;;;;;6.32;100.00;100442.88;105303;1258;71438;-58
2023/12/27 06:06:49;;;;;;;1.20;0.20;;;;;;;6.32;100.00;100450.38;104781;1259;60857;-56
2023/12/27 06:09:16;;;;;;;1.20;0.30;;;;;;;6.33;100.00;100455.34;104965;1254;60441;-58
2023/12/27 06:11:44;;;;;;;1.40;0.30;;;;;;;6.36;100.00;100457.45;108844;1253;73993;-60
2023/12/27 06:14:12;;;;;;;1.30;0.20;;;;;;;6.40;100.00;100455.57;109039;1253;67621;-59
2023/12/27 06:16:39;;;;;;;1.60;0.30;;;;;;;6.43;100.00;100466.20;108830;1253;71459;-59
2023/12/27 06:19:06;;;;;;;2.20;0.40;;;;;;;6.47;100.00;100463.63;108915;1259;58735;-59
2023/12/27 06:21:34;;;;;;;0.60;0.20;;;;;;;6.50;100.00;100467.85;108936;1259;59352;-59
2023/12/27 06:24:02;;;;;;;1.20;0.20;;;;;;;6.50;100.00;100479.27;108900;1253;72309;-58
2023/12/27 06:26:30;;;;;;;0.40;0.20;;;;;;;6.48;100.00;100481.96;107922;1253;69457;-57
2023/12/27 06:28:57;;;;;;;0.30;0.20;;;;;;;6.47;100.00;100478.43;105393;1256;71780;-59
2023/12/27 06:31:24;;;;;;;0.40;0.30;;;;;;;6.45;100.00;100478.83;104885;1257;60671;-58
2023/12/27 06:33:55;;;;;;;0.60;0.20;;;;;;;6.44;100.00;100481.70;104674;1259;62362;-57
2023/12/27 06:36:23;;;;;;;0.70;0.20;;;;;;;6.41;100.00;100475.86;105657;1259;74902;-58
2023/12/27 06:38:51;;;;;;;0.50;0.20;;;;;;;6.39;100.00;100470.89;105186;1254;64860;-59
2023/12/27 06:41:18;;;;;;;0.50;0.20;;;;;;;6.39;100.00;100462.88;104595;1253;74998;-59
2023/12/27 06:43:45;;;;;;;0.40;0.20;;;;;;;6.40;100.00;100467.15;104602;1254;60975;-56
2023/12/27 06:46:13;;;;;;;0.70;0.20;;;;;;;6.40;100.00;100477.13;104989;1252;60494;-60
2023/12/27 06:48:40;;;;;;;0.60;0.20;;;;;;;6.39;100.00;100478.75;104775;1258;73855;-58
2023/12/27 06:51:08;;;;;;;2.30;0.40;;;;;;;6.38;100.00;100468.80;104658;1259;68704;-57
2023/12/27 06:53:35;;;;;;;0.70;0.30;;;;;;;6.37;100.00;100475.95;104853;1253;72635;-60
2023/12/27 06:56:03;;;;;;;0.50;0.20;;;;;;;6.36;100.00;100472.60;104903;1253;60534;-56
2023/12/27 06:58:30;;;;;;;0.90;0.20;;;;;;;6.34;100.00;100480.65;104862;1253;60558;-58
2023/12/27 07:00:58;;;;;;;0.30;0.20;;;;;;;6.31;100.00;100484.79;104668;1256;74499;-59
2023/12/27 07:03:25;;;;;;;0.40;0.30;;;;;;;6.29;100.00;100473.09;105043;1254;66058;-57
2023/12/27 07:05:53;;;;;;;0.30;0.20;;;;;;;6.27;100.00;100472.77;104687;1257;71193;-59
2023/12/27 07:08:20;;;;;;;0.30;0.20;;;;;;;6.25;100.00;100473.16;104721;1257;60549;-58
2023/12/27 07:10:48;;;;;;;0.30;0.10;;;;;;;6.23;100.00;100473.91;104622;1259;60335;-56
2023/12/27 07:13:15;;;;;;;0.20;0.10;;;;;;;6.22;100.00;100470.90;104846;1254;71867;-58
2023/12/27 07:15:42;;;;;;;1.90;0.10;;;;;;;6.19;100.00;100481.14;104691;1253;69474;-58
2023/12/27 07:18:10;;;;;;;0.20;0.10;;;;;;;6.14;100.00;100478.17;104798;1257;71703;-58
2023/12/27 07:20:37;;;;;;;0.20;0.10;;;;;;;6.09;100.00;100484.86;104651;1259;60735;-56
2023/12/27 07:23:05;;;;;;;0.00;0.00;;;;;;;6.03;100.00;100483.20;104746;1260;60390;-56
2023/12/27 07:25:32;;;;;;;0.10;0.10;;;;;;;5.95;100.00;100492.42;104864;1253;73896;-57
2023/12/27 07:27:59;;;;;;;0.20;0.10;;;;;;;5.87;100.00;100487.39;104901;1256;66782;-58
2023/12/27 07:30:27;;;;;;;0.40;0.10;;;;;;;5.78;100.00;100484.14;106405;1254;71447;-60
2023/12/27 07:32:55;;;;;;;0.10;0.00;;;;;;;5.69;100.00;100494.80;104678;1259;60521;-58
2023/12/27 07:35:23;;;;;;;0.40;0.10;;;;;;;5.59;100.00;100499.77;104463;1259;60517;-57
2023/12/27 07:37:51;;;;;;;0.10;0.00;;;;;;;5.49;100.00;100494.59;104695;1257;72935;-58
2023/12/27 07:40:19;;;;;;;4.20;0.10;;;;;;;5.40;100.00;100498.30;104924;1256;65775;-58
2023/12/27 07:42:48;;;;;;;0.20;0.10;;;;;;;5.32;100.00;100487.04;104583;1257;71598;-58
2023/12/27 07:45:18;;;;;;;0.10;0.10;;;;;;;5.27;100.00;100489.41;105603;1257;60354;-59
2023/12/27 07:47:45;;;;;;;0.80;0.10;;;;;;;5.22;100.00;100489.49;104930;1254;61467;-56
2023/12/27 07:50:13;;;;;;;0.20;0.10;;;;;;;5.15;100.00;100472.52;104767;1258;72470;-56
2023/12/27 07:52:42;;;;;;;0.70;0.10;;;;;;;5.09;100.00;100469.23;104575;1253;67551;-58
2023/12/27 07:55:10;;;;;;;0.20;0.10;;;;;;;5.04;100.00;100471.60;104784;1257;71513;-56
2023/12/27 07:57:38;;;;;;;0.30;0.10;;;;;;;5.02;100.00;100471.84;104553;1259;60529;-58
2023/12/27 08:00:07;;;;;;;0.10;0.10;;;;;;;5.02;100.00;100469.85;104915;1259;60476;-57
2023/12/27 08:02:38;;;;;;;0.10;0.10;;;;;;;5.05;100.00;100470.53;104919;1254;73939;-57
2023/12/27 08:05:05;;;;;;;0.60;0.00;;;;;;;5.07;100.00;100462.14;104609;1254;65963;-57
2023/12/27 08:07:33;;;;;;;0.10;0.00;;;;;;;5.10;100.00;100466.90;104997;1253;72743;-58
2023/12/27 08:10:00;;;;;;;0.20;0.10;;;;;;;5.13;100.00;100476.28;105242;1254;59741;-58
2023/12/27 08:12:28;;;;;;;0.20;0.10;;;;;;;5.15;100.00;100484.09;104650;1259;60581;-59
2023/12/27 08:14:56;;;;;;;0.20;0.10;;;;;;;5.13;100.00;100490.52;104811;1259;72560;-57
2023/12/27 08:17:23;;;;;;;0.00;0.00;;;;;;;5.09;100.00;100491.48;104725;1254;66721;-58
2023/12/27 08:19:51;;;;;;;0.10;0.00;;;;;;;5.04;100.00;100492.60;104759;1254;74943;-58
2023/12/27 08:22:18;;;;;;;0.20;0.10;;;;;;;5.00;100.00;100491.95;105230;1254;60554;-60
2023/12/27 08:24:46;;;;;;;0.00;0.00;;;;;;;4.93;100.00;100490.45;104768;1254;60361;-58
2023/12/27 08:27:13;;;;;;;0.10;0.10;;;;;;;4.86;100.00;100491.05;104471;1256;71755;-59
2023/12/27 08:29:41;;;;;;;0.20;0.10;;;;;;;4.83;100.00;100493.26;104507;1254;66844;-58
2023/12/27 08:32:11;;;;;;;0.30;0.20;;;;;;;4.85;100.00;100499.97;104945;1254;72803;-60
2023/12/27 08:34:39;;;;;;;0.10;0.10;;;;;;;4.89;100.00;100508.30;104841;1258;60410;-57
2023/12/27 08:37:06;;;;;;;0.20;0.20;;;;;;;4.92;100.00;100516.96;105827;1254;60543;-59
2023/12/27 08:39:34;;;;;;;0.10;0.10;;;;;;;4.94;100.00;100516.91;104778;1259;72678;-59
2023/12/27 08:42:01;;;;;;;1.30;0.10;;;;;;;4.94;100.00;100516.03;104609;1254;66044;-59
2023/12/27 08:44:28;;;;;;;0.40;0.20;;;;;;;4.94;100.00;100516.91;104977;1258;71428;-59
2023/12/27 08:46:56;;;;;;;0.20;0.10;;;;;;;4.96;100.00;100516.36;104592;1260;60592;-61
2023/12/27 08:49:25;;;;;;;0.40;0.10;;;;;;;4.98;100.00;100517.96;104536;1260;60354;-59
2023/12/27 08:51:53;;;;;;;0.20;0.00;;;;;;;4.98;100.00;100521.16;108885;1256;72661;-58
2023/12/27 08:54:20;;;;;;;0.20;0.10;;;;;;;4.97;100.00;100514.58;105346;1253;71187;-57
2023/12/27 08:56:47;;;;;;;0.50;0.10;;;;;;;4.99;100.00;100522.74;104612;1259;73510;-58
2023/12/27 08:59:15;;;;;;;0.10;0.10;;;;;;;5.03;100.00;100520.90;104534;1260;61237;-59
2023/12/27 09:01:42;;;;;;;0.20;0.10;;;;;;;5.08;100.00;100527.77;104914;1259;104438;-59
2023/12/27 09:04:52;;;;;;;0.20;0.10;;;;;;;5.15;100.00;100604.73;101198;1296;601041;-60
2023/12/27 09:07:19;;;;;;;0.90;0.10;;;;;;;5.21;100.00;100678.11;103412;1271;59243;-59
2023/12/27 09:09:47;;;;;;;1.00;0.10;;;;;;;5.27;100.00;100655.46;103582;1272;59027;-58
2023/12/27 09:12:14;;;;;;;0.40;0.00;;;;;;;5.30;100.00;100651.66;107640;1270;72030;-59
2023/12/27 09:14:42;;;;;;;0.10;0.10;;;;;;;5.31;100.00;100639.38;105668;1274;67449;-60
2023/12/27 09:17:09;;;;;;;0.20;0.10;;;;;;;5.34;100.00;100641.67;103589;1271;73182;-59
2023/12/27 09:19:36;;;;;;;0.50;0.10;;;;;;;5.40;100.00;100652.98;103681;1274;141947;-58
2023/12/27 09:22:06;;;;;;;1.60;0.10;;;;;;;5.43;100.00;100647.96;103697;1268;60455;-58
2023/12/27 09:24:34;;;;;;;0.10;0.10;;;;;;;5.47;100.00;100646.82;108002;1268;70208;-60
2023/12/27 09:27:01;;;;;;;0.10;0.10;;;;;;;5.53;100.00;100648.54;107990;1268;67038;-60
2023/12/27 09:29:30;;;;;;;0.10;0.10;;;;;;;5.56;100.00;100648.30;107882;1273;72647;-59
2023/12/27 09:31:57;;;;;;;0.10;0.10;;;;;;;5.57;100.00;100653.10;108030;1268;59238;-59
2023/12/27 09:34:25;;;;;;;0.10;0.10;;;;;;;5.55;100.00;100650.27;107965;1268;60104;-61
2023/12/27 09:36:52;;;;;;;0.20;0.10;;;;;;;5.51;100.00;100644.81;107911;1268;73938;-59
2023/12/27 09:39:19;;;;;;;0.10;0.10;;;;;;;5.47;100.00;100637.03;104515;1267;65975;-55
2023/12/27 09:41:47;;;;;;;0.40;0.20;;;;;;;5.45;100.00;100638.84;103542;1268;70471;-60
2023/12/27 09:44:16;;;;;;;0.20;0.10;;;;;;;5.42;100.00;100640.85;103577;1273;60065;-59
2023/12/27 09:46:43;;;;;;;0.10;0.10;;;;;;;5.38;100.00;100638.58;105675;1268;60031;-57
2023/12/27 09:49:10;;;;;;;0.20;0.20;;;;;;;5.35;100.00;100633.48;103388;1273;71862;-61
2023/12/27 09:51:38;;;;;;;0.60;0.10;;;;;;;5.30;100.00;100628.36;103440;1268;65661;-61
2023/12/27 09:54:06;;;;;;;0.90;0.10;;;;;;;5.27;100.00;100629.80;104268;1259;71441;-59
2023/12/27 09:56:33;;;;;;;0.40;0.10;;;;;;;5.26;100.00;100629.86;104349;1257;59655;-58
2023/12/27 09:59:06;;;;;;;0.40;0.20;;;;;;;5.25;100.00;100625.41;104279;1258;62263;-60
2023/12/27 10:01:37;;;;;;;0.50;0.10;;;;;;;5.25;100.00;100628.44;104539;1263;75271;-56
2023/12/27 10:04:11;;;;;;;0.10;0.00;;;;;;;5.26;100.00;100626.65;104732;1258;67418;-59
2023/12/27 10:06:45;;;;;;;0.20;0.10;;;;;;;5.25;100.00;100634.84;104822;1258;72918;-58
2023/12/27 10:09:12;;;;;;;0.50;0.20;;;;;;;5.24;100.00;100638.58;104265;1258;59640;-58
2023/12/27 10:11:44;;;;;;;0.20;0.10;;;;;;;5.22;100.00;100637.71;106098;1261;60215;-58
2023/12/27 10:14:12;;;;;;;0.30;0.20;;;;;;;5.21;100.00;100638.27;104283;1257;71944;-58
2023/12/27 10:16:40;;;;;;;0.40;0.10;;;;;;;5.21;100.00;100634.52;104319;1258;65342;-58
2023/12/27 10:19:07;;;;;;;0.20;0.10;;;;;;;5.21;100.00;100634.52;104478;1258;71461;-59
2023/12/27 10:21:43;;;;;;;0.20;0.20;;;;;;;5.20;100.00;100641.29;104759;1263;59787;-60
2023/12/27 10:24:11;;;;;;;0.10;0.00;;;;;;;5.19;100.00;100645.94;104448;1263;59917;-57
2023/12/27 10:26:38;;;;;;;0.10;0.10;;;;;;;5.18;100.00;100635.64;104508;1258;71047;-59
2023/12/27 10:29:07;;;;;;;0.20;0.10;;;;;;;5.16;100.00;100628.73;104606;1263;65816;-58
2023/12/27 10:31:35;;;;;;;0.60;0.10;;;;;;;5.15;100.00;100625.89;105331;1259;71932;-59
2023/12/27 10:34:03;;;;;;;0.60;0.20;;;;;;;5.16;100.00;100629.61;104476;1258;60078;-60
2023/12/27 10:36:31;;;;;;;0.20;0.10;;;;;;;5.20;100.00;100630.81;104163;1258;60036;-60
2023/12/27 10:39:02;;;;;;;0.60;0.20;;;;;;;5.24;100.00;100635.20;104806;1258;73229;-59
2023/12/27 10:41:31;;;;;;;0.40;0.20;;;;;;;5.27;100.00;100640.33;104503;1262;65845;-58
2023/12/27 10:44:00;;;;;;;0.30;0.20;;;;;;;5.27;100.00;100635.15;104386;1259;72778;-58
2023/12/27 10:46:28;;;;;;;0.20;0.10;;;;;;;5.28;100.00;100637.82;104624;1264;61476;-58
2023/12/27 10:48:56;;;;;;;0.10;0.10;;;;;;;5.27;100.00;100631.59;104337;1259;60233;-60
2023/12/27 10:51:24;;;;;;;0.40;0.20;;;;;;;5.26;100.00;100636.08;104334;1258;73054;-59
2023/12/27 10:53:59;;;;;;;0.20;0.10;;;;;;;5.25;100.00;100640.00;104629;1264;65703;-59
2023/12/27 10:56:26;;;;;;;0.30;0.20;;;;;;;5.25;100.00;100635.38;105448;1264;71554;-60
2023/12/27 10:58:54;;;;;;;0.30;0.10;;;;;;;5.25;100.00;100638.23;104522;1264;60138;-57
2023/12/27 11:01:21;;;;;;;1.20;0.20;;;;;;;5.25;100.00;100640.17;104534;1258;60177;-56
2023/12/27 11:03:49;;;;;;;3.20;0.10;;;;;;;5.25;100.00;100640.36;104476;1258;73519;-58
2023/12/27 11:06:21;;;;;;;0.50;0.20;;;;;;;5.26;100.00;100638.21;104617;1259;66315;-57
2023/12/27 11:08:49;;;;;;;0.90;0.10;;;;;;;5.26;100.00;100643.02;104554;1258;71432;-61
2023/12/27 11:11:16;;;;;;;0.40;0.20;;;;;;;5.26;100.00;100634.84;104405;1260;59700;-59
2023/12/27 11:13:43;;;;;;;0.30;0.10;;;;;;;5.27;100.00;100630.38;104252;1262;60332;-60
2023/12/27 11:16:11;;;;;;;0.20;0.10;;;;;;;5.28;100.00;100633.19;104469;1262;73308;-59
2023/12/27 11:18:38;;;;;;;1.70;0.20;;;;;;;5.28;100.00;100632.12;104327;1264;67155;-60
2023/12/27 11:21:06;;;;;;;2.70;0.10;;;;;;;5.29;100.00;100635.48;104413;1265;71450;-59
2023/12/27 11:23:34;;;;;;;0.30;0.10;;;;;;;5.29;100.00;100629.07;104402;1258;60436;-60